sensor_id;sensor_type;location;lat;lon;timestamp;P1;durP1;ratioP1;P2;durP2;ratioP2
12296;SDS011;6211;49.124;9.152;2022-12-28T00:01:37;2.75;;;2.28;;
12296;SDS011;6211;49.124;9.152;2022-12-28T00:04:04;2.60;;;2.40;;
12296;SDS011;6211;49.124;9.152;2022-12-28T00:06:33;4.20;;;3.53;;
12296;SDS011;6211;49.124;9.152;2022-12-28T00:09:00;2.80;;;2.28;;
12296;SDS011;6211;49.124;9.152;2022-12-28T00:11:28;3.33;;;3.03;;
12296;SDS011;6211;49.124;9.152;2022-12-28T00:13:55;2.95;;;2.55;;
12296;SDS011;6211;49.124;9.152;2022-12-28T00:16:23;3.30;;;3.00;;
12296;SDS011;6211;49.124;9.152;2022-12-28T00:18:51;4.47;;;2.80;;
12296;SDS011;6211;49.124;9.152;2022-12-28T00:21:18;4.50;;;3.60;;
12296;SDS011;6211;49.124;9.152;2022-12-28T00:23:48;3.85;;;2.97;;
12296;SDS011;6211;49.124;9.152;2022-12-28T00:26:17;4.38;;;3.50;;
12296;SDS011;6211;49.124;9.152;2022-12-28T00:28:45;3.63;;;2.53;;
12296;SDS011;6211;49.124;9.152;2022-12-28T00:31:12;5.72;;;3.90;;
12296;SDS011;6211;49.124;9.152;2022-12-28T00:33:39;3.13;;;2.83;;
12296;SDS011;6211;49.124;9.152;2022-12-28T00:36:08;4.18;;;2.97;;
12296;SDS011;6211;49.124;9.152;2022-12-28T00:38:36;3.33;;;2.88;;
12296;SDS011;6211;49.124;9.152;2022-12-28T00:41:05;3.08;;;2.88;;
12296;SDS011;6211;49.124;9.152;2022-12-28T00:43:32;3.03;;;2.67;;
12296;SDS011;6211;49.124;9.152;2022-12-28T00:46:00;4.45;;;2.70;;
12296;SDS011;6211;49.124;9.152;2022-12-28T00:48:27;3.10;;;2.47;;
12296;SDS011;6211;49.124;9.152;2022-12-28T00:50:59;5.38;;;3.17;;
12296;SDS011;6211;49.124;9.152;2022-12-28T00:53:26;3.55;;;2.92;;
12296;SDS011;6211;49.124;9.152;2022-12-28T00:55:53;2.80;;;2.55;;
12296;SDS011;6211;49.124;9.152;2022-12-28T00:58:22;3.47;;;3.17;;
12296;SDS011;6211;49.124;9.152;2022-12-28T01:00:49;3.03;;;2.72;;
12296;SDS011;6211;49.124;9.152;2022-12-28T01:03:16;3.53;;;2.47;;
12296;SDS011;6211;49.124;9.152;2022-12-28T01:05:43;2.88;;;2.28;;
12296;SDS011;6211;49.124;9.152;2022-12-28T01:08:10;2.33;;;2.08;;
12296;SDS011;6211;49.124;9.152;2022-12-28T01:10:38;3.90;;;3.10;;
12296;SDS011;6211;49.124;9.152;2022-12-28T01:13:05;6.82;;;3.03;;
12296;SDS011;6211;49.124;9.152;2022-12-28T01:15:33;8.38;;;2.90;;
12296;SDS011;6211;49.124;9.152;2022-12-28T01:18:00;4.90;;;3.80;;
12296;SDS011;6211;49.124;9.152;2022-12-28T01:20:28;4.03;;;2.80;;
12296;SDS011;6211;49.124;9.152;2022-12-28T01:22:55;3.67;;;3.10;;
12296;SDS011;6211;49.124;9.152;2022-12-28T01:25:22;3.33;;;2.95;;
12296;SDS011;6211;49.124;9.152;2022-12-28T01:27:49;3.25;;;2.55;;
12296;SDS011;6211;49.124;9.152;2022-12-28T01:30:16;2.33;;;2.13;;
12296;SDS011;6211;49.124;9.152;2022-12-28T01:32:45;4.00;;;3.25;;
12296;SDS011;6211;49.124;9.152;2022-12-28T01:35:12;5.40;;;3.03;;
12296;SDS011;6211;49.124;9.152;2022-12-28T01:37:39;2.95;;;2.33;;
12296;SDS011;6211;49.124;9.152;2022-12-28T01:40:07;3.00;;;2.38;;
12296;SDS011;6211;49.124;9.152;2022-12-28T01:42:37;1.95;;;1.85;;
12296;SDS011;6211;49.124;9.152;2022-12-28T01:45:12;5.70;;;2.67;;
12296;SDS011;6211;49.124;9.152;2022-12-28T01:47:41;3.75;;;2.05;;
12296;SDS011;6211;49.124;9.152;2022-12-28T01:50:10;8.75;;;3.03;;
12296;SDS011;6211;49.124;9.152;2022-12-28T01:52:39;2.67;;;1.77;;
12296;SDS011;6211;49.124;9.152;2022-12-28T01:55:09;2.83;;;2.45;;
12296;SDS011;6211;49.124;9.152;2022-12-28T01:57:38;2.00;;;1.90;;
12296;SDS011;6211;49.124;9.152;2022-12-28T02:00:08;2.15;;;2.05;;
12296;SDS011;6211;49.124;9.152;2022-12-28T02:02:36;3.10;;;2.63;;
12296;SDS011;6211;49.124;9.152;2022-12-28T02:05:03;3.35;;;2.75;;
12296;SDS011;6211;49.124;9.152;2022-12-28T02:07:35;3.47;;;2.13;;
12296;SDS011;6211;49.124;9.152;2022-12-28T02:10:04;2.45;;;2.25;;
12296;SDS011;6211;49.124;9.152;2022-12-28T02:12:31;5.35;;;3.33;;
12296;SDS011;6211;49.124;9.152;2022-12-28T02:14:59;3.60;;;2.47;;
12296;SDS011;6211;49.124;9.152;2022-12-28T02:17:27;4.15;;;2.28;;
12296;SDS011;6211;49.124;9.152;2022-12-28T02:19:54;2.03;;;1.83;;
12296;SDS011;6211;49.124;9.152;2022-12-28T02:25:13;6.38;;;2.60;;
12296;SDS011;6211;49.124;9.152;2022-12-28T02:27:48;3.50;;;2.20;;
12296;SDS011;6211;49.124;9.152;2022-12-28T02:30:19;2.20;;;1.90;;
12296;SDS011;6211;49.124;9.152;2022-12-28T02:32:50;2.50;;;2.30;;
12296;SDS011;6211;49.124;9.152;2022-12-28T02:35:23;2.67;;;2.33;;
12296;SDS011;6211;49.124;9.152;2022-12-28T02:37:55;3.03;;;2.45;;
12296;SDS011;6211;49.124;9.152;2022-12-28T02:40:25;2.40;;;2.20;;
12296;SDS011;6211;49.124;9.152;2022-12-28T02:42:54;2.90;;;2.60;;
12296;SDS011;6211;49.124;9.152;2022-12-28T02:45:29;2.13;;;1.92;;
12296;SDS011;6211;49.124;9.152;2022-12-28T02:48:14;3.42;;;2.10;;
12296;SDS011;6211;49.124;9.152;2022-12-28T02:51:01;3.13;;;2.00;;
12296;SDS011;6211;49.124;9.152;2022-12-28T02:53:37;1.70;;;1.45;;
12296;SDS011;6211;49.124;9.152;2022-12-28T02:56:09;4.55;;;2.20;;
12296;SDS011;6211;49.124;9.152;2022-12-28T02:58:51;2.70;;;2.28;;
12296;SDS011;6211;49.124;9.152;2022-12-28T03:01:26;2.83;;;1.80;;
12296;SDS011;6211;49.124;9.152;2022-12-28T03:04:01;2.83;;;2.00;;
12296;SDS011;6211;49.124;9.152;2022-12-28T03:06:37;1.35;;;1.25;;
12296;SDS011;6211;49.124;9.152;2022-12-28T03:09:25;2.42;;;2.08;;
12296;SDS011;6211;49.124;9.152;2022-12-28T03:11:56;1.73;;;1.63;;
12296;SDS011;6211;49.124;9.152;2022-12-28T03:14:25;2.88;;;2.55;;
12296;SDS011;6211;49.124;9.152;2022-12-28T03:16:56;1.45;;;1.35;;
12296;SDS011;6211;49.124;9.152;2022-12-28T03:19:43;1.20;;;1.10;;
12296;SDS011;6211;49.124;9.152;2022-12-28T03:22:29;1.63;;;1.33;;
12296;SDS011;6211;49.124;9.152;2022-12-28T03:25:15;1.00;;;1.00;;
12296;SDS011;6211;49.124;9.152;2022-12-28T03:28:01;1.50;;;1.15;;
12296;SDS011;6211;49.124;9.152;2022-12-28T03:30:48;2.28;;;2.08;;
12296;SDS011;6211;49.124;9.152;2022-12-28T03:33:31;1.77;;;1.35;;
12296;SDS011;6211;49.124;9.152;2022-12-28T03:36:00;1.90;;;1.75;;
12296;SDS011;6211;49.124;9.152;2022-12-28T03:38:30;1.75;;;1.60;;
12296;SDS011;6211;49.124;9.152;2022-12-28T03:41:01;3.92;;;1.50;;
12296;SDS011;6211;49.124;9.152;2022-12-28T03:43:33;1.33;;;1.23;;
12296;SDS011;6211;49.124;9.152;2022-12-28T03:46:08;1.70;;;1.45;;
12296;SDS011;6211;49.124;9.152;2022-12-28T03:48:38;1.58;;;1.10;;
12296;SDS011;6211;49.124;9.152;2022-12-28T03:51:06;1.08;;;1.08;;
12296;SDS011;6211;49.124;9.152;2022-12-28T03:53:36;1.27;;;1.00;;
12296;SDS011;6211;49.124;9.152;2022-12-28T03:56:05;4.10;;;1.42;;
12296;SDS011;6211;49.124;9.152;2022-12-28T03:58:32;2.00;;;1.80;;
12296;SDS011;6211;49.124;9.152;2022-12-28T04:00:59;0.93;;;0.90;;
12296;SDS011;6211;49.124;9.152;2022-12-28T04:03:26;1.30;;;1.20;;
12296;SDS011;6211;49.124;9.152;2022-12-28T04:05:55;2.08;;;1.42;;
12296;SDS011;6211;49.124;9.152;2022-12-28T04:08:22;0.95;;;0.95;;
12296;SDS011;6211;49.124;9.152;2022-12-28T04:10:49;1.08;;;1.08;;
12296;SDS011;6211;49.124;9.152;2022-12-28T04:13:16;0.88;;;0.85;;
12296;SDS011;6211;49.124;9.152;2022-12-28T04:15:43;4.18;;;1.65;;
12296;SDS011;6211;49.124;9.152;2022-12-28T04:18:20;1.48;;;1.38;;
12296;SDS011;6211;49.124;9.152;2022-12-28T04:20:47;2.17;;;1.70;;
12296;SDS011;6211;49.124;9.152;2022-12-28T04:23:15;1.35;;;1.25;;
12296;SDS011;6211;49.124;9.152;2022-12-28T04:25:43;1.73;;;1.63;;
12296;SDS011;6211;49.124;9.152;2022-12-28T04:28:10;1.38;;;1.10;;
12296;SDS011;6211;49.124;9.152;2022-12-28T04:30:37;2.30;;;1.58;;
12296;SDS011;6211;49.124;9.152;2022-12-28T04:33:04;1.15;;;1.05;;
12296;SDS011;6211;49.124;9.152;2022-12-28T04:35:31;1.10;;;1.00;;
12296;SDS011;6211;49.124;9.152;2022-12-28T04:37:58;1.85;;;1.52;;
12296;SDS011;6211;49.124;9.152;2022-12-28T04:40:27;1.17;;;1.08;;
12296;SDS011;6211;49.124;9.152;2022-12-28T04:42:54;1.30;;;1.20;;
12296;SDS011;6211;49.124;9.152;2022-12-28T04:45:21;1.63;;;1.33;;
12296;SDS011;6211;49.124;9.152;2022-12-28T04:47:48;1.10;;;1.05;;
12296;SDS011;6211;49.124;9.152;2022-12-28T04:50:15;1.42;;;1.23;;
12296;SDS011;6211;49.124;9.152;2022-12-28T04:52:42;2.45;;;1.20;;
12296;SDS011;6211;49.124;9.152;2022-12-28T04:55:10;3.03;;;1.40;;
12296;SDS011;6211;49.124;9.152;2022-12-28T04:57:38;1.95;;;1.65;;
12296;SDS011;6211;49.124;9.152;2022-12-28T05:00:06;1.98;;;1.27;;
12296;SDS011;6211;49.124;9.152;2022-12-28T05:02:33;3.13;;;1.40;;
12296;SDS011;6211;49.124;9.152;2022-12-28T05:05:00;1.35;;;1.27;;
12296;SDS011;6211;49.124;9.152;2022-12-28T05:07:27;1.10;;;0.75;;
12296;SDS011;6211;49.124;9.152;2022-12-28T05:09:54;1.33;;;0.80;;
12296;SDS011;6211;49.124;9.152;2022-12-28T05:12:21;0.70;;;0.65;;
12296;SDS011;6211;49.124;9.152;2022-12-28T05:14:51;5.63;;;1.00;;
12296;SDS011;6211;49.124;9.152;2022-12-28T05:17:18;1.52;;;1.45;;
12296;SDS011;6211;49.124;9.152;2022-12-28T05:19:45;0.70;;;0.70;;
12296;SDS011;6211;49.124;9.152;2022-12-28T05:22:12;0.60;;;0.60;;
12296;SDS011;6211;49.124;9.152;2022-12-28T05:24:41;2.05;;;0.90;;
12296;SDS011;6211;49.124;9.152;2022-12-28T05:27:08;0.77;;;0.77;;
12296;SDS011;6211;49.124;9.152;2022-12-28T05:29:35;0.80;;;0.80;;
12296;SDS011;6211;49.124;9.152;2022-12-28T05:32:04;3.78;;;1.27;;
12296;SDS011;6211;49.124;9.152;2022-12-28T05:34:31;3.33;;;0.80;;
12296;SDS011;6211;49.124;9.152;2022-12-28T05:36:58;2.00;;;0.60;;
12296;SDS011;6211;49.124;9.152;2022-12-28T05:39:25;0.80;;;0.75;;
12296;SDS011;6211;49.124;9.152;2022-12-28T05:41:53;1.83;;;1.70;;
12296;SDS011;6211;49.124;9.152;2022-12-28T05:44:24;2.22;;;1.25;;
12296;SDS011;6211;49.124;9.152;2022-12-28T05:46:51;3.67;;;1.15;;
12296;SDS011;6211;49.124;9.152;2022-12-28T05:49:19;1.45;;;0.88;;
12296;SDS011;6211;49.124;9.152;2022-12-28T05:51:47;1.05;;;0.98;;
12296;SDS011;6211;49.124;9.152;2022-12-28T05:54:15;0.80;;;0.52;;
12296;SDS011;6211;49.124;9.152;2022-12-28T05:56:42;1.75;;;0.80;;
12296;SDS011;6211;49.124;9.152;2022-12-28T05:59:10;0.85;;;0.50;;
12296;SDS011;6211;49.124;9.152;2022-12-28T06:01:38;0.68;;;0.68;;
12296;SDS011;6211;49.124;9.152;2022-12-28T06:04:07;5.05;;;0.65;;
12296;SDS011;6211;49.124;9.152;2022-12-28T06:06:35;2.60;;;0.90;;
12296;SDS011;6211;49.124;9.152;2022-12-28T06:09:03;1.27;;;1.17;;
12296;SDS011;6211;49.124;9.152;2022-12-28T06:11:30;0.65;;;0.50;;
12296;SDS011;6211;49.124;9.152;2022-12-28T06:13:57;0.57;;;0.45;;
12296;SDS011;6211;49.124;9.152;2022-12-28T06:16:26;1.00;;;0.80;;
12296;SDS011;6211;49.124;9.152;2022-12-28T06:18:53;0.52;;;0.50;;
12296;SDS011;6211;49.124;9.152;2022-12-28T06:21:21;0.52;;;0.52;;
12296;SDS011;6211;49.124;9.152;2022-12-28T06:23:50;1.17;;;0.70;;
12296;SDS011;6211;49.124;9.152;2022-12-28T06:26:18;1.10;;;0.77;;
12296;SDS011;6211;49.124;9.152;2022-12-28T06:28:46;1.02;;;0.60;;
12296;SDS011;6211;49.124;9.152;2022-12-28T06:31:14;0.95;;;0.65;;
12296;SDS011;6211;49.124;9.152;2022-12-28T06:33:41;1.70;;;0.50;;
12296;SDS011;6211;49.124;9.152;2022-12-28T06:36:10;0.47;;;0.47;;
12296;SDS011;6211;49.124;9.152;2022-12-28T06:38:37;0.65;;;0.60;;
12296;SDS011;6211;49.124;9.152;2022-12-28T06:41:06;0.60;;;0.60;;
12296;SDS011;6211;49.124;9.152;2022-12-28T06:43:34;1.00;;;0.90;;
12296;SDS011;6211;49.124;9.152;2022-12-28T06:46:02;0.93;;;0.60;;
12296;SDS011;6211;49.124;9.152;2022-12-28T06:48:29;0.57;;;0.50;;
12296;SDS011;6211;49.124;9.152;2022-12-28T06:50:57;0.55;;;0.55;;
12296;SDS011;6211;49.124;9.152;2022-12-28T06:53:25;0.73;;;0.60;;
12296;SDS011;6211;49.124;9.152;2022-12-28T06:55:53;1.60;;;0.73;;
12296;SDS011;6211;49.124;9.152;2022-12-28T06:58:22;1.05;;;0.95;;
12296;SDS011;6211;49.124;9.152;2022-12-28T07:00:49;1.75;;;1.38;;
12296;SDS011;6211;49.124;9.152;2022-12-28T07:03:16;0.90;;;0.60;;
12296;SDS011;6211;49.124;9.152;2022-12-28T07:05:43;4.88;;;1.20;;
12296;SDS011;6211;49.124;9.152;2022-12-28T07:08:10;1.15;;;1.00;;
12296;SDS011;6211;49.124;9.152;2022-12-28T07:10:38;1.23;;;1.00;;
12296;SDS011;6211;49.124;9.152;2022-12-28T07:13:05;0.90;;;0.85;;
12296;SDS011;6211;49.124;9.152;2022-12-28T07:15:34;0.85;;;0.85;;
12296;SDS011;6211;49.124;9.152;2022-12-28T07:18:02;1.45;;;0.93;;
12296;SDS011;6211;49.124;9.152;2022-12-28T07:20:29;0.80;;;0.80;;
12296;SDS011;6211;49.124;9.152;2022-12-28T07:22:56;0.60;;;0.60;;
12296;SDS011;6211;49.124;9.152;2022-12-28T07:25:23;0.73;;;0.73;;
12296;SDS011;6211;49.124;9.152;2022-12-28T07:27:50;1.13;;;1.08;;
12296;SDS011;6211;49.124;9.152;2022-12-28T07:30:17;2.42;;;0.80;;
12296;SDS011;6211;49.124;9.152;2022-12-28T07:32:46;0.47;;;0.47;;
12296;SDS011;6211;49.124;9.152;2022-12-28T07:35:13;0.82;;;0.55;;
12296;SDS011;6211;49.124;9.152;2022-12-28T07:37:40;3.40;;;0.82;;
12296;SDS011;6211;49.124;9.152;2022-12-28T07:40:08;0.70;;;0.70;;
12296;SDS011;6211;49.124;9.152;2022-12-28T07:42:35;0.90;;;0.80;;
12296;SDS011;6211;49.124;9.152;2022-12-28T07:45:03;0.50;;;0.50;;
12296;SDS011;6211;49.124;9.152;2022-12-28T07:47:33;2.88;;;0.82;;
12296;SDS011;6211;49.124;9.152;2022-12-28T07:50:02;1.02;;;0.70;;
12296;SDS011;6211;49.124;9.152;2022-12-28T07:52:29;3.17;;;0.95;;
12296;SDS011;6211;49.124;9.152;2022-12-28T07:54:56;0.70;;;0.70;;
12296;SDS011;6211;49.124;9.152;2022-12-28T07:57:23;3.72;;;1.65;;
12296;SDS011;6211;49.124;9.152;2022-12-28T07:59:51;0.93;;;0.82;;
12296;SDS011;6211;49.124;9.152;2022-12-28T08:02:18;0.75;;;0.75;;
12296;SDS011;6211;49.124;9.152;2022-12-28T08:04:45;0.65;;;0.65;;
12296;SDS011;6211;49.124;9.152;2022-12-28T08:07:13;0.70;;;0.70;;
12296;SDS011;6211;49.124;9.152;2022-12-28T08:09:41;1.42;;;0.77;;
12296;SDS011;6211;49.124;9.152;2022-12-28T08:12:08;1.55;;;0.43;;
12296;SDS011;6211;49.124;9.152;2022-12-28T08:14:35;0.70;;;0.70;;
12296;SDS011;6211;49.124;9.152;2022-12-28T08:17:02;3.53;;;0.88;;
12296;SDS011;6211;49.124;9.152;2022-12-28T08:19:30;0.75;;;0.65;;
12296;SDS011;6211;49.124;9.152;2022-12-28T08:21:57;0.60;;;0.60;;
12296;SDS011;6211;49.124;9.152;2022-12-28T08:24:27;1.38;;;0.70;;
12296;SDS011;6211;49.124;9.152;2022-12-28T08:26:54;1.00;;;0.70;;
12296;SDS011;6211;49.124;9.152;2022-12-28T08:29:21;0.43;;;0.43;;
12296;SDS011;6211;49.124;9.152;2022-12-28T08:31:48;4.57;;;1.05;;
12296;SDS011;6211;49.124;9.152;2022-12-28T08:34:16;0.70;;;0.70;;
12296;SDS011;6211;49.124;9.152;2022-12-28T08:36:43;3.20;;;0.85;;
12296;SDS011;6211;49.124;9.152;2022-12-28T08:39:11;0.50;;;0.50;;
12296;SDS011;6211;49.124;9.152;2022-12-28T08:41:40;0.75;;;0.60;;
12296;SDS011;6211;49.124;9.152;2022-12-28T08:44:07;2.03;;;0.90;;
12296;SDS011;6211;49.124;9.152;2022-12-28T08:46:35;0.77;;;0.73;;
12296;SDS011;6211;49.124;9.152;2022-12-28T08:49:04;0.85;;;0.80;;
12296;SDS011;6211;49.124;9.152;2022-12-28T08:51:31;1.95;;;1.40;;
12296;SDS011;6211;49.124;9.152;2022-12-28T08:53:59;1.13;;;1.02;;
12296;SDS011;6211;49.124;9.152;2022-12-28T08:56:27;1.02;;;0.70;;
12296;SDS011;6211;49.124;9.152;2022-12-28T08:58:56;0.60;;;0.60;;
12296;SDS011;6211;49.124;9.152;2022-12-28T09:01:24;1.73;;;1.15;;
12296;SDS011;6211;49.124;9.152;2022-12-28T09:03:52;1.13;;;0.85;;
12296;SDS011;6211;49.124;9.152;2022-12-28T09:06:20;1.55;;;0.85;;
12296;SDS011;6211;49.124;9.152;2022-12-28T09:08:48;1.52;;;1.15;;
12296;SDS011;6211;49.124;9.152;2022-12-28T09:11:16;1.42;;;1.33;;
12296;SDS011;6211;49.124;9.152;2022-12-28T09:13:43;1.08;;;1.02;;
12296;SDS011;6211;49.124;9.152;2022-12-28T09:16:12;1.15;;;0.65;;
12296;SDS011;6211;49.124;9.152;2022-12-28T09:18:40;1.27;;;0.77;;
12296;SDS011;6211;49.124;9.152;2022-12-28T09:21:08;0.93;;;0.80;;
12296;SDS011;6211;49.124;9.152;2022-12-28T09:23:37;0.75;;;0.75;;
12296;SDS011;6211;49.124;9.152;2022-12-28T09:26:05;0.80;;;0.80;;
12296;SDS011;6211;49.124;9.152;2022-12-28T09:28:32;1.15;;;1.05;;
12296;SDS011;6211;49.124;9.152;2022-12-28T09:31:00;3.03;;;0.80;;
12296;SDS011;6211;49.124;9.152;2022-12-28T09:33:29;1.17;;;0.88;;
12296;SDS011;6211;49.124;9.152;2022-12-28T09:36:14;1.40;;;0.90;;
12296;SDS011;6211;49.124;9.152;2022-12-28T09:38:43;1.40;;;0.88;;
12296;SDS011;6211;49.124;9.152;2022-12-28T09:41:11;0.77;;;0.77;;
12296;SDS011;6211;49.124;9.152;2022-12-28T09:43:39;0.98;;;0.98;;
12296;SDS011;6211;49.124;9.152;2022-12-28T09:46:07;0.90;;;0.90;;
12296;SDS011;6211;49.124;9.152;2022-12-28T09:48:36;0.75;;;0.75;;
12296;SDS011;6211;49.124;9.152;2022-12-28T09:51:04;0.88;;;0.80;;
12296;SDS011;6211;49.124;9.152;2022-12-28T09:53:32;0.75;;;0.70;;
12296;SDS011;6211;49.124;9.152;2022-12-28T09:56:01;0.70;;;0.70;;
12296;SDS011;6211;49.124;9.152;2022-12-28T09:58:29;1.10;;;1.00;;
12296;SDS011;6211;49.124;9.152;2022-12-28T10:00:58;1.15;;;1.00;;
12296;SDS011;6211;49.124;9.152;2022-12-28T10:03:26;0.90;;;0.90;;
12296;SDS011;6211;49.124;9.152;2022-12-28T10:05:55;1.42;;;1.08;;
12296;SDS011;6211;49.124;9.152;2022-12-28T10:08:23;0.80;;;0.80;;
12296;SDS011;6211;49.124;9.152;2022-12-28T10:10:51;1.35;;;1.08;;
12296;SDS011;6211;49.124;9.152;2022-12-28T10:13:20;2.58;;;0.90;;
12296;SDS011;6211;49.124;9.152;2022-12-28T10:15:47;1.13;;;0.90;;
12296;SDS011;6211;49.124;9.152;2022-12-28T10:18:15;1.00;;;1.00;;
12296;SDS011;6211;49.124;9.152;2022-12-28T10:20:45;0.70;;;0.70;;
12296;SDS011;6211;49.124;9.152;2022-12-28T10:23:15;1.13;;;1.02;;
12296;SDS011;6211;49.124;9.152;2022-12-28T10:25:43;1.55;;;1.00;;
12296;SDS011;6211;49.124;9.152;2022-12-28T10:28:11;3.50;;;0.80;;
12296;SDS011;6211;49.124;9.152;2022-12-28T10:30:45;1.35;;;0.82;;
12296;SDS011;6211;49.124;9.152;2022-12-28T10:33:15;2.25;;;1.00;;
12296;SDS011;6211;49.124;9.152;2022-12-28T10:35:47;0.90;;;0.77;;
12296;SDS011;6211;49.124;9.152;2022-12-28T10:38:19;1.25;;;1.15;;
12296;SDS011;6211;49.124;9.152;2022-12-28T10:40:52;1.10;;;0.85;;
12296;SDS011;6211;49.124;9.152;2022-12-28T10:43:21;1.42;;;0.70;;
12296;SDS011;6211;49.124;9.152;2022-12-28T10:45:49;1.45;;;0.90;;
12296;SDS011;6211;49.124;9.152;2022-12-28T10:48:18;0.90;;;0.85;;
12296;SDS011;6211;49.124;9.152;2022-12-28T10:50:49;1.17;;;0.80;;
12296;SDS011;6211;49.124;9.152;2022-12-28T10:53:25;1.00;;;0.88;;
12296;SDS011;6211;49.124;9.152;2022-12-28T10:56:03;3.05;;;0.90;;
12296;SDS011;6211;49.124;9.152;2022-12-28T10:58:31;4.07;;;1.35;;
12296;SDS011;6211;49.124;9.152;2022-12-28T11:00:59;1.83;;;0.80;;
12296;SDS011;6211;49.124;9.152;2022-12-28T11:03:28;0.70;;;0.70;;
12296;SDS011;6211;49.124;9.152;2022-12-28T11:06:14;0.57;;;0.57;;
12296;SDS011;6211;49.124;9.152;2022-12-28T11:08:44;2.33;;;1.00;;
12296;SDS011;6211;49.124;9.152;2022-12-28T11:11:15;1.45;;;0.90;;
12296;SDS011;6211;49.124;9.152;2022-12-28T11:13:43;1.85;;;1.05;;
12296;SDS011;6211;49.124;9.152;2022-12-28T11:16:11;0.85;;;0.85;;
12296;SDS011;6211;49.124;9.152;2022-12-28T11:18:39;0.85;;;0.85;;
12296;SDS011;6211;49.124;9.152;2022-12-28T11:21:08;1.55;;;1.05;;
12296;SDS011;6211;49.124;9.152;2022-12-28T11:23:35;0.60;;;0.60;;
12296;SDS011;6211;49.124;9.152;2022-12-28T11:26:09;0.80;;;0.80;;
12296;SDS011;6211;49.124;9.152;2022-12-28T11:28:38;1.45;;;1.33;;
12296;SDS011;6211;49.124;9.152;2022-12-28T11:31:06;1.30;;;0.98;;
12296;SDS011;6211;49.124;9.152;2022-12-28T11:33:37;3.70;;;1.23;;
12296;SDS011;6211;49.124;9.152;2022-12-28T11:36:09;0.95;;;0.90;;
12296;SDS011;6211;49.124;9.152;2022-12-28T11:38:40;1.55;;;1.10;;
12296;SDS011;6211;49.124;9.152;2022-12-28T11:41:10;1.10;;;0.77;;
12296;SDS011;6211;49.124;9.152;2022-12-28T11:43:38;0.65;;;0.63;;
12296;SDS011;6211;49.124;9.152;2022-12-28T11:46:06;1.52;;;0.80;;
12296;SDS011;6211;49.124;9.152;2022-12-28T11:48:37;0.57;;;0.50;;
12296;SDS011;6211;49.124;9.152;2022-12-28T11:51:05;2.38;;;0.50;;
12296;SDS011;6211;49.124;9.152;2022-12-28T11:53:48;0.50;;;0.50;;
12296;SDS011;6211;49.124;9.152;2022-12-28T11:56:17;0.93;;;0.93;;
12296;SDS011;6211;49.124;9.152;2022-12-28T11:58:45;0.85;;;0.80;;
12296;SDS011;6211;49.124;9.152;2022-12-28T12:04:05;1.08;;;0.73;;
12296;SDS011;6211;49.124;9.152;2022-12-28T12:09:24;0.85;;;0.80;;
12296;SDS011;6211;49.124;9.152;2022-12-28T12:11:53;2.22;;;1.10;;
12296;SDS011;6211;49.124;9.152;2022-12-28T12:14:22;1.08;;;0.60;;
12296;SDS011;6211;49.124;9.152;2022-12-28T12:16:51;0.70;;;0.70;;
12296;SDS011;6211;49.124;9.152;2022-12-28T12:19:19;0.68;;;0.68;;
12296;SDS011;6211;49.124;9.152;2022-12-28T12:21:51;0.63;;;0.57;;
12296;SDS011;6211;49.124;9.152;2022-12-28T12:24:24;0.70;;;0.70;;
12296;SDS011;6211;49.124;9.152;2022-12-28T12:26:56;1.20;;;0.75;;
12296;SDS011;6211;49.124;9.152;2022-12-28T12:29:25;0.60;;;0.60;;
12296;SDS011;6211;49.124;9.152;2022-12-28T12:31:55;0.93;;;0.75;;
12296;SDS011;6211;49.124;9.152;2022-12-28T12:34:25;0.95;;;0.77;;
12296;SDS011;6211;49.124;9.152;2022-12-28T12:37:03;0.70;;;0.70;;
12296;SDS011;6211;49.124;9.152;2022-12-28T12:42:19;1.25;;;0.75;;
12296;SDS011;6211;49.124;9.152;2022-12-28T12:44:53;2.00;;;0.80;;
12296;SDS011;6211;49.124;9.152;2022-12-28T12:47:35;0.80;;;0.70;;
12296;SDS011;6211;49.124;9.152;2022-12-28T12:50:16;0.43;;;0.43;;
12296;SDS011;6211;49.124;9.152;2022-12-28T12:52:50;0.60;;;0.60;;
12296;SDS011;6211;49.124;9.152;2022-12-28T12:55:21;0.90;;;0.68;;
12296;SDS011;6211;49.124;9.152;2022-12-28T12:57:56;2.35;;;0.65;;
12296;SDS011;6211;49.124;9.152;2022-12-28T13:00:25;1.27;;;0.60;;
12296;SDS011;6211;49.124;9.152;2022-12-28T13:03:07;1.20;;;1.05;;
12296;SDS011;6211;49.124;9.152;2022-12-28T13:05:40;0.93;;;0.70;;
12296;SDS011;6211;49.124;9.152;2022-12-28T13:08:13;0.98;;;0.82;;
12296;SDS011;6211;49.124;9.152;2022-12-28T13:10:41;0.75;;;0.75;;
12296;SDS011;6211;49.124;9.152;2022-12-28T13:13:15;1.63;;;0.93;;
12296;SDS011;6211;49.124;9.152;2022-12-28T13:15:43;1.10;;;0.93;;
12296;SDS011;6211;49.124;9.152;2022-12-28T13:18:14;0.80;;;0.80;;
12296;SDS011;6211;49.124;9.152;2022-12-28T13:20:50;1.08;;;0.98;;
12296;SDS011;6211;49.124;9.152;2022-12-28T13:23:18;1.75;;;1.02;;
12296;SDS011;6211;49.124;9.152;2022-12-28T13:25:46;1.35;;;0.82;;
12296;SDS011;6211;49.124;9.152;2022-12-28T13:28:18;1.00;;;0.75;;
12296;SDS011;6211;49.124;9.152;2022-12-28T13:30:53;0.82;;;0.82;;
12296;SDS011;6211;49.124;9.152;2022-12-28T13:33:21;3.15;;;0.65;;
12296;SDS011;6211;49.124;9.152;2022-12-28T13:35:48;0.77;;;0.77;;
12296;SDS011;6211;49.124;9.152;2022-12-28T13:38:15;1.02;;;0.70;;
12296;SDS011;6211;49.124;9.152;2022-12-28T13:40:47;1.38;;;0.70;;
12296;SDS011;6211;49.124;9.152;2022-12-28T13:43:30;0.90;;;0.90;;
12296;SDS011;6211;49.124;9.152;2022-12-28T13:46:03;0.80;;;0.80;;
12296;SDS011;6211;49.124;9.152;2022-12-28T13:48:33;0.75;;;0.70;;
12296;SDS011;6211;49.124;9.152;2022-12-28T13:51:02;0.63;;;0.63;;
12296;SDS011;6211;49.124;9.152;2022-12-28T13:53:30;0.70;;;0.70;;
12296;SDS011;6211;49.124;9.152;2022-12-28T13:55:58;2.30;;;1.17;;
12296;SDS011;6211;49.124;9.152;2022-12-28T13:58:29;0.70;;;0.70;;
12296;SDS011;6211;49.124;9.152;2022-12-28T14:00:58;0.57;;;0.57;;
12296;SDS011;6211;49.124;9.152;2022-12-28T14:03:26;1.27;;;0.90;;
12296;SDS011;6211;49.124;9.152;2022-12-28T14:05:55;1.05;;;0.77;;
12296;SDS011;6211;49.124;9.152;2022-12-28T14:08:24;2.28;;;0.80;;
12296;SDS011;6211;49.124;9.152;2022-12-28T14:10:52;0.63;;;0.63;;
12296;SDS011;6211;49.124;9.152;2022-12-28T14:13:19;1.88;;;1.00;;
12296;SDS011;6211;49.124;9.152;2022-12-28T14:15:48;1.08;;;0.98;;
12296;SDS011;6211;49.124;9.152;2022-12-28T14:18:16;0.73;;;0.70;;
12296;SDS011;6211;49.124;9.152;2022-12-28T14:20:45;0.68;;;0.68;;
12296;SDS011;6211;49.124;9.152;2022-12-28T14:23:18;1.45;;;1.15;;
12296;SDS011;6211;49.124;9.152;2022-12-28T14:25:46;1.45;;;0.90;;
12296;SDS011;6211;49.124;9.152;2022-12-28T14:28:16;1.90;;;1.08;;
12296;SDS011;6211;49.124;9.152;2022-12-28T14:30:48;0.70;;;0.70;;
12296;SDS011;6211;49.124;9.152;2022-12-28T14:33:18;4.55;;;1.10;;
12296;SDS011;6211;49.124;9.152;2022-12-28T14:35:47;1.05;;;0.77;;
12296;SDS011;6211;49.124;9.152;2022-12-28T14:38:15;0.68;;;0.68;;
12296;SDS011;6211;49.124;9.152;2022-12-28T14:40:43;2.83;;;1.10;;
12296;SDS011;6211;49.124;9.152;2022-12-28T14:43:18;2.80;;;0.95;;
12296;SDS011;6211;49.124;9.152;2022-12-28T14:45:48;2.00;;;0.90;;
12296;SDS011;6211;49.124;9.152;2022-12-28T14:48:21;6.22;;;1.08;;
12296;SDS011;6211;49.124;9.152;2022-12-28T14:50:55;0.90;;;0.90;;
12296;SDS011;6211;49.124;9.152;2022-12-28T14:53:22;1.58;;;1.25;;
12296;SDS011;6211;49.124;9.152;2022-12-28T14:55:53;1.55;;;1.15;;
12296;SDS011;6211;49.124;9.152;2022-12-28T14:58:22;1.20;;;1.00;;
12296;SDS011;6211;49.124;9.152;2022-12-28T15:00:55;1.10;;;1.00;;
12296;SDS011;6211;49.124;9.152;2022-12-28T15:03:23;2.25;;;1.17;;
12296;SDS011;6211;49.124;9.152;2022-12-28T15:05:53;1.42;;;1.33;;
12296;SDS011;6211;49.124;9.152;2022-12-28T15:08:21;1.50;;;1.02;;
12296;SDS011;6211;49.124;9.152;2022-12-28T15:10:49;1.98;;;1.27;;
12296;SDS011;6211;49.124;9.152;2022-12-28T15:13:16;1.08;;;0.98;;
12296;SDS011;6211;49.124;9.152;2022-12-28T15:15:51;1.65;;;1.40;;
12296;SDS011;6211;49.124;9.152;2022-12-28T15:18:18;1.77;;;1.20;;
12296;SDS011;6211;49.124;9.152;2022-12-28T15:20:47;3.17;;;2.60;;
12296;SDS011;6211;49.124;9.152;2022-12-28T15:23:14;2.92;;;1.60;;
12296;SDS011;6211;49.124;9.152;2022-12-28T15:25:41;1.30;;;1.17;;